Time;durP1;ratioP1;P1;durP2;ratioP2;P2;SDS_P1;SDS_P2;PMS_P1;PMS_P2;Temp;Humidity;BMP_temperature;BMP_pressure;BME280_temperature;BME280_humidity;BME280_pressure;Samples;Min_cycle;Max_cycle;Signal;HPM_P1;HPM_P2
2022/09/06 00:02:02;;;;;;;0.30;0.30;;;;;;;12.39;68.07;101857.69;5129087;28;20034;-76
2022/09/06 00:04:28;;;;;;;0.30;0.30;;;;;;;12.34;68.04;101851.56;5128791;28;20429;-76
2022/09/06 00:06:53;;;;;;;0.30;0.30;;;;;;;12.36;68.00;101855.03;5128970;28;20058;-75
2022/09/06 00:09:18;;;;;;;0.30;0.30;;;;;;;12.29;68.07;101848.06;5128833;28;20023;-75
2022/09/06 00:11:44;;;;;;;0.38;0.38;;;;;;;12.26;68.06;101846.31;5128873;28;20027;-75
2022/09/06 00:14:09;;;;;;;0.90;0.77;;;;;;;12.18;68.06;101837.56;5129305;28;20039;-75
2022/09/06 00:16:34;;;;;;;0.63;0.63;;;;;;;12.20;68.24;101840.16;5110445;28;20028;-75
2022/09/06 00:19:00;;;;;;;0.30;0.30;;;;;;;12.14;68.37;101843.63;5128314;28;20023;-76
2022/09/06 00:21:30;;;;;;;0.35;0.35;;;;;;;12.11;68.46;101846.16;5110072;28;20020;-76
2022/09/06 00:23:55;;;;;;;0.30;0.30;;;;;;;12.06;68.71;101851.28;5128767;28;20139;-76
2022/09/06 00:26:22;;;;;;;0.30;0.30;;;;;;;12.06;68.95;101845.25;5128541;28;20137;-75
2022/09/06 00:28:47;;;;;;;0.30;0.30;;;;;;;12.02;69.14;101841.72;5128506;28;20110;-76
2022/09/06 00:31:16;;;;;;;0.30;0.30;;;;;;;11.95;69.36;101839.94;5128448;28;20024;-75
2022/09/06 00:33:41;;;;;;;0.30;0.30;;;;;;;11.99;69.45;101849.50;5110057;28;20015;-76
2022/09/06 00:36:08;;;;;;;0.30;0.30;;;;;;;11.95;69.75;101840.78;5110113;28;20563;-76
2022/09/06 00:38:34;;;;;;;0.30;0.30;;;;;;;11.94;69.67;101844.28;5128323;28;20023;-77
2022/09/06 00:41:00;;;;;;;0.60;0.60;;;;;;;11.93;69.84;101846.84;5128246;28;20027;-77
2022/09/06 00:43:25;;;;;;;0.40;0.40;;;;;;;11.92;70.23;101845.13;5128535;28;20062;-76
2022/09/06 00:45:52;;;;;;;0.30;0.30;;;;;;;11.82;70.15;101832.00;5109579;28;20020;-76
2022/09/06 00:48:18;;;;;;;0.30;0.30;;;;;;;11.85;70.31;101836.38;5128439;28;20030;-76
2022/09/06 00:50:45;;;;;;;0.30;0.30;;;;;;;11.84;70.53;101845.91;5127860;28;20077;-76
2022/09/06 00:53:11;;;;;;;0.30;0.30;;;;;;;11.82;70.63;101847.59;5128336;28;20020;-76
2022/09/06 00:55:37;;;;;;;0.30;0.30;;;;;;;11.75;70.80;101838.91;5109055;28;20024;-76
2022/09/06 00:58:02;;;;;;;0.30;0.30;;;;;;;11.77;71.02;101855.38;5128139;28;20035;-76
2022/09/06 01:00:28;;;;;;;0.30;0.30;;;;;;;11.81;71.03;101856.28;5127831;28;20103;-76
2022/09/06 01:02:53;;;;;;;0.30;0.30;;;;;;;11.77;71.17;101849.31;5127976;28;20024;-76
2022/09/06 01:05:22;;;;;;;0.30;0.30;;;;;;;11.67;71.28;101839.66;5127696;28;20027;-77
2022/09/06 01:08:24;;;;;;;0.30;0.30;;;;;;;11.71;71.48;101852.72;5109528;28;20046;-77
2022/09/06 01:11:03;;;;;;;0.40;0.40;;;;;;;11.69;71.54;101856.16;5109065;28;20020;-76
2022/09/06 01:13:48;;;;;;;0.30;0.30;;;;;;;11.67;72.14;101855.28;5109573;28;20032;-77
2022/09/06 01:16:32;;;;;;;0.30;0.30;;;;;;;11.64;72.06;101848.31;5127660;28;20023;-77
2022/09/06 01:19:00;;;;;;;0.30;0.30;;;;;;;11.62;72.29;101852.63;5127429;28;20055;-77
2022/09/06 01:21:52;;;;;;;0.30;0.30;;;;;;;11.52;72.17;101836.91;5127573;28;20016;-76
2022/09/06 01:24:35;;;;;;;0.30;0.30;;;;;;;11.52;72.36;101842.13;5127624;28;20028;-77
2022/09/06 01:27:32;;;;;;;0.30;0.30;;;;;;;11.48;72.55;101844.69;5109130;28;20027;-76
2022/09/06 01:30:04;;;;;;;0.30;0.30;;;;;;;11.49;72.73;101849.00;5093580;28;20020;-77
2022/09/06 01:32:59;;;;;;;0.30;0.30;;;;;;;11.51;73.08;101845.59;5109348;28;20136;-76
2022/09/06 01:35:48;;;;;;;0.30;0.30;;;;;;;11.45;73.23;101850.72;5127188;28;20278;-76
2022/09/06 01:38:14;;;;;;;0.30;0.30;;;;;;;11.44;73.42;101837.72;5127330;28;20548;-76
2022/09/06 01:40:40;;;;;;;0.30;0.30;;;;;;;11.44;73.44;101850.72;5108607;28;20015;-76
2022/09/06 01:43:09;;;;;;;0.40;0.40;;;;;;;11.38;73.67;101841.97;5127457;28;20052;-76
2022/09/06 01:45:58;;;;;;;0.30;0.30;;;;;;;11.43;73.81;101847.22;5108792;28;20015;-77
2022/09/06 01:48:43;;;;;;;0.30;0.30;;;;;;;11.43;74.03;101849.84;5127290;28;20039;-76
2022/09/06 01:51:28;;;;;;;0.30;0.30;;;;;;;11.37;74.00;101845.41;5126698;28;20103;-76
2022/09/06 01:54:15;;;;;;;0.30;0.30;;;;;;;11.37;74.35;101845.41;5126965;28;20027;-76
2022/09/06 01:57:10;;;;;;;0.50;0.50;;;;;;;11.37;74.44;101841.97;5126839;28;20107;-75
2022/09/06 02:00:10;;;;;;;0.30;0.30;;;;;;;11.31;74.63;101847.09;5126730;28;20031;-75
2022/09/06 02:02:38;;;;;;;0.50;0.50;;;;;;;11.33;74.95;101845.38;5109127;28;20379;-75
2022/09/06 02:05:21;;;;;;;0.30;0.30;;;;;;;11.31;74.96;101842.75;5126623;28;20019;-75
2022/09/06 02:07:48;;;;;;;0.30;0.30;;;;;;;11.25;74.97;101840.06;5125693;28;20020;-78
2022/09/06 02:10:30;;;;;;;0.30;0.30;;;;;;;11.22;75.35;101845.25;5126278;28;20024;-75
2022/09/06 02:13:00;;;;;;;0.30;0.30;;;;;;;11.21;75.33;101840.91;5126816;28;20032;-75
2022/09/06 02:15:30;;;;;;;0.40;0.40;;;;;;;11.15;75.42;101836.50;5108262;28;20023;-75
2022/09/06 02:18:04;;;;;;;0.40;0.40;;;;;;;11.15;75.48;101844.28;5126616;28;20038;-75
2022/09/06 02:20:32;;;;;;;0.30;0.30;;;;;;;11.11;75.44;101838.19;5107916;28;20110;-74
2022/09/06 02:23:05;;;;;;;0.30;0.30;;;;;;;11.11;75.59;101842.50;5126457;28;20047;-75
2022/09/06 02:25:41;;;;;;;0.30;0.30;;;;;;;11.07;75.83;101833.78;5108236;28;20027;-74
2022/09/06 02:28:07;;;;;;;0.30;0.30;;;;;;;11.09;75.87;101834.69;5107962;28;20023;-74
2022/09/06 02:30:44;;;;;;;0.30;0.30;;;;;;;11.09;75.97;101839.91;5126104;28;20031;-75
2022/09/06 02:33:18;;;;;;;0.40;0.40;;;;;;;11.01;76.12;101831.13;5126561;28;20027;-75
2022/09/06 02:35:50;;;;;;;0.30;0.30;;;;;;;10.97;76.15;101832.84;5126017;28;20037;-75
2022/09/06 02:38:17;;;;;;;0.40;0.40;;;;;;;11.08;76.10;101848.56;5126391;28;20486;-75
2022/09/06 02:40:44;;;;;;;0.30;0.30;;;;;;;11.05;76.17;101845.91;5126007;28;20032;-76
2022/09/06 02:43:09;;;;;;;0.40;0.40;;;;;;;11.03;76.24;101843.31;5126271;28;20030;-74
2022/09/06 02:45:35;;;;;;;0.40;0.40;;;;;;;11.03;76.51;101845.91;5107727;28;20023;-74
2022/09/06 02:48:00;;;;;;;0.40;0.40;;;;;;;11.00;76.33;101839.78;5107717;28;20044;-75
2022/09/06 02:50:26;;;;;;;0.30;0.30;;;;;;;11.00;76.23;101843.25;5125680;28;20027;-75
2022/09/06 02:53:06;;;;;;;0.30;0.30;;;;;;;11.00;76.33;101844.97;5107734;28;20430;-75
2022/09/06 02:55:31;;;;;;;0.40;0.40;;;;;;;10.97;76.27;101832.84;5126262;28;20031;-75
2022/09/06 02:57:57;;;;;;;0.40;0.40;;;;;;;10.97;76.41;101837.16;5107892;28;20019;-75
2022/09/06 03:00:23;;;;;;;0.35;0.35;;;;;;;10.96;76.59;101836.25;5125925;28;20027;-76
2022/09/06 03:02:49;;;;;;;0.40;0.40;;;;;;;10.97;76.58;101839.75;5126343;28;20027;-67
2022/09/06 03:05:14;;;;;;;0.30;0.30;;;;;;;10.91;76.71;101836.22;5125826;28;20569;-67
2022/09/06 03:07:40;;;;;;;0.30;0.30;;;;;;;10.88;76.68;101833.56;5125953;28;20073;-67
2022/09/06 03:10:05;;;;;;;0.30;0.30;;;;;;;10.85;76.70;101835.25;5126278;28;20062;-65
2022/09/06 03:12:31;;;;;;;0.40;0.40;;;;;;;10.81;76.58;101838.66;5127994;28;20024;-66
2022/09/06 03:14:56;;;;;;;0.30;0.30;;;;;;;10.78;76.74;101829.13;5126129;28;20027;-67
2022/09/06 03:17:22;;;;;;;0.30;0.30;;;;;;;10.73;76.50;101822.97;5125752;28;20083;-67
2022/09/06 03:19:47;;;;;;;0.30;0.30;;;;;;;10.75;76.85;101822.13;5128152;28;20016;-67
2022/09/06 03:22:12;;;;;;;1.00;1.00;;;;;;;10.71;76.96;101816.88;5130896;28;20581;-66
2022/09/06 03:24:38;;;;;;;0.30;0.30;;;;;;;10.65;76.82;101821.13;5129879;28;20034;-68
2022/09/06 03:27:03;;;;;;;0.40;0.40;;;;;;;10.64;77.00;101813.31;5128955;28;20028;-68
2022/09/06 03:29:29;;;;;;;0.30;0.30;;;;;;;10.64;77.02;101819.38;5128514;28;20410;-68
2022/09/06 03:31:54;;;;;;;0.30;0.30;;;;;;;10.64;76.94;101816.78;5129296;28;20027;-68
2022/09/06 03:34:19;;;;;;;0.30;0.30;;;;;;;10.64;77.38;101813.31;5129449;28;20023;-68
2022/09/06 03:36:45;;;;;;;0.40;0.40;;;;;;;10.59;77.26;101802.00;5111427;28;20019;-68
2022/09/06 03:39:10;;;;;;;0.30;0.30;;;;;;;10.62;77.49;101804.66;5111306;28;20027;-68
2022/09/06 03:41:37;;;;;;;0.40;0.40;;;;;;;10.63;77.58;101803.78;5129638;28;20053;-68
2022/09/06 03:44:02;;;;;;;0.40;0.40;;;;;;;10.62;77.72;101808.09;5110997;28;20026;-68
2022/09/06 03:46:29;;;;;;;0.30;0.30;;;;;;;10.57;77.86;101795.91;5129338;28;20040;-68
2022/09/06 03:48:55;;;;;;;0.40;0.40;;;;;;;10.49;77.74;101786.31;5111032;28;20020;-69
2022/09/06 03:51:21;;;;;;;0.40;0.40;;;;;;;10.53;77.93;101793.28;5129123;28;20050;-68
2022/09/06 03:53:46;;;;;;;0.40;0.40;;;;;;;10.51;77.69;101802.75;5129253;28;20467;-68
2022/09/06 03:56:11;;;;;;;0.30;0.30;;;;;;;10.50;77.94;101794.94;5129203;28;20062;-68
2022/09/06 03:58:37;;;;;;;0.40;0.40;;;;;;;10.52;77.85;101794.13;5129120;28;20020;-68
2022/09/06 04:01:08;;;;;;;0.38;0.38;;;;;;;10.52;77.98;101801.94;5129119;28;20027;-68
2022/09/06 04:03:34;;;;;;;0.50;0.50;;;;;;;10.48;78.20;101802.72;5129172;28;20050;-68
2022/09/06 04:06:01;;;;;;;0.40;0.40;;;;;;;10.42;78.30;101789.63;5128888;28;20030;-70
2022/09/06 04:08:29;;;;;;;0.40;0.40;;;;;;;10.41;78.27;101796.53;5129361;28;20047;-68
2022/09/06 04:10:56;;;;;;;0.30;0.30;;;;;;;10.43;78.41;101796.56;5128699;28;20135;-68
2022/09/06 04:13:23;;;;;;;0.30;0.30;;;;;;;10.39;78.39;101790.44;5128992;28;20023;-68
2022/09/06 04:15:48;;;;;;;0.30;0.30;;;;;;;10.41;78.52;101801.72;5128846;28;20027;-68
2022/09/06 04:18:14;;;;;;;0.40;0.40;;;;;;;10.39;78.72;101794.75;5128864;28;20027;-69
2022/09/06 04:20:40;;;;;;;0.30;0.30;;;;;;;10.35;78.73;101792.97;5128418;28;20079;-68
2022/09/06 04:23:06;;;;;;;0.35;0.35;;;;;;;10.39;78.91;101808.63;5128763;28;20024;-69
2022/09/06 04:25:31;;;;;;;0.30;0.30;;;;;;;10.41;78.93;101801.72;5128778;28;20076;-69
2022/09/06 04:27:56;;;;;;;0.47;0.47;;;;;;;10.45;78.92;101806.97;5128859;28;20031;-68
2022/09/06 04:30:22;;;;;;;0.40;0.40;;;;;;;10.40;78.96;101807.75;5127280;28;20020;-68
2022/09/06 04:32:47;;;;;;;0.32;0.32;;;;;;;10.43;79.28;101801.75;5128657;28;20494;-67
2022/09/06 04:35:13;;;;;;;0.30;0.30;;;;;;;10.63;79.33;101804.66;5128257;28;20384;-67
2022/09/06 04:37:38;;;;;;;0.40;0.40;;;;;;;10.76;79.37;101818.69;5128227;28;20105;-67
2022/09/06 04:40:04;;;;;;;0.40;0.40;;;;;;;10.88;79.16;101812.78;5128510;28;20027;-68
2022/09/06 04:42:29;;;;;;;0.30;0.30;;;;;;;11.04;79.11;101810.38;5128558;28;20046;-69
2022/09/06 04:44:55;;;;;;;0.40;0.40;;;;;;;11.17;78.62;101813.16;5128585;28;20031;-68
2022/09/06 04:47:20;;;;;;;1.75;1.67;;;;;;;11.31;78.29;101798.53;5128226;28;20048;-74
2022/09/06 04:49:48;;;;;;;0.30;0.30;;;;;;;11.39;77.66;101803.81;5127341;28;20080;-72
2022/09/06 04:52:14;;;;;;;0.30;0.30;;;;;;;11.62;77.30;101811.00;5128124;28;20506;-72
2022/09/06 04:54:41;;;;;;;0.30;0.30;;;;;;;11.69;76.71;101804.13;5128244;28;20059;-73
2022/09/06 04:57:06;;;;;;;0.40;0.40;;;;;;;11.89;76.33;101809.50;5109844;28;20020;-73
2022/09/06 04:59:32;;;;;;;0.30;0.30;;;;;;;12.05;75.93;101810.53;5128546;28;20083;-72
2022/09/06 05:01:57;;;;;;;0.30;0.30;;;;;;;12.17;75.12;101794.16;5128085;28;20020;-73
2022/09/06 05:04:23;;;;;;;0.30;0.30;;;;;;;12.44;75.49;101812.56;5127850;28;20026;-73
2022/09/06 05:06:48;;;;;;;0.30;0.30;;;;;;;12.64;74.92;101804.84;5127430;28;20041;-70
2022/09/06 05:09:14;;;;;;;0.30;0.30;;;;;;;12.95;73.30;101811.97;5109658;28;20030;-71
2022/09/06 05:11:39;;;;;;;0.30;0.30;;;;;;;13.16;74.16;101805.97;5109418;28;20027;-70
2022/09/06 05:14:05;;;;;;;0.30;0.30;;;;;;;13.55;72.68;101805.19;5127715;28;20024;-73
2022/09/06 05:16:30;;;;;;;0.30;0.30;;;;;;;13.67;71.40;101807.84;5127725;28;20032;-74
2022/09/06 05:18:55;;;;;;;0.30;0.30;;;;;;;13.69;69.91;101803.47;5127770;28;20114;-75
2022/09/06 05:21:21;;;;;;;0.30;0.30;;;;;;;13.74;69.85;101801.75;5109136;28;20481;-75
2022/09/06 05:23:50;;;;;;;0.30;0.30;;;;;;;13.88;70.06;101804.38;5127865;28;20044;-76
2022/09/06 05:26:18;;;;;;;0.30;0.30;;;;;;;14.34;71.28;101801.72;5127832;28;20035;-76
2022/09/06 05:28:43;;;;;;;0.30;0.30;;;;;;;14.78;70.85;101791.13;5127811;28;20035;-75
2022/09/06 05:31:11;;;;;;;0.30;0.30;;;;;;;15.21;68.99;101792.72;5127376;28;20545;-76
2022/09/06 05:33:37;;;;;;;0.88;0.85;;;;;;;15.44;69.13;101791.72;5127565;28;20024;-74
2022/09/06 05:36:04;;;;;;;0.30;0.30;;;;;;;15.74;67.58;101784.53;5127308;28;20034;-77
2022/09/06 05:38:30;;;;;;;1.95;1.33;;;;;;;16.20;68.62;101795.50;5127455;28;20030;-77
2022/09/06 05:40:55;;;;;;;0.30;0.30;;;;;;;16.44;63.96;101798.75;5108724;28;20047;-75
2022/09/06 05:43:21;;;;;;;0.30;0.30;;;;;;;16.15;61.96;101787.69;5126524;28;20023;-77
2022/09/06 05:45:46;;;;;;;0.30;0.30;;;;;;;16.02;62.45;101794.81;5126440;28;20023;-75
2022/09/06 05:48:11;;;;;;;0.20;0.20;;;;;;;16.04;62.62;101792.19;5127325;28;20050;-73
2022/09/06 05:50:37;;;;;;;0.30;0.30;;;;;;;16.07;61.07;101795.63;5126502;28;20019;-73
2022/09/06 05:53:02;;;;;;;0.30;0.30;;;;;;;15.99;61.60;101789.56;5127120;28;20027;-75
2022/09/06 05:55:27;;;;;;;0.30;0.30;;;;;;;16.04;60.55;101789.56;5108614;28;20024;-76
2022/09/06 05:57:53;;;;;;;0.30;0.30;;;;;;;16.01;59.52;101789.59;5109085;28;20026;-74
2022/09/06 06:00:19;;;;;;;0.30;0.30;;;;;;;15.70;60.02;101773.19;5108589;28;20030;-74
2022/09/06 06:02:48;;;;;;;0.20;0.20;;;;;;;15.75;60.63;101783.63;5127191;28;20024;-75
2022/09/06 06:05:14;;;;;;;0.30;0.30;;;;;;;16.12;61.20;101784.25;5126896;28;20020;-75
2022/09/06 06:07:39;;;;;;;0.30;0.30;;;;;;;16.34;59.79;101777.88;5127136;28;20034;-74
2022/09/06 06:10:05;;;;;;;0.20;0.20;;;;;;;16.55;58.63;101783.78;5126740;28;20024;-74
2022/09/06 06:12:30;;;;;;;0.25;0.25;;;;;;;16.52;58.60;101782.97;5126524;28;20072;-74
2022/09/06 06:14:56;;;;;;;0.30;0.30;;;;;;;16.88;61.19;101782.53;5126967;28;20024;-75
2022/09/06 06:17:21;;;;;;;0.30;0.30;;;;;;;17.46;59.44;101772.97;5126710;28;20031;-76
2022/09/06 06:19:46;;;;;;;0.20;0.20;;;;;;;17.79;59.07;101777.72;5126509;28;20020;-75
2022/09/06 06:22:12;;;;;;;0.25;0.25;;;;;;;18.02;57.95;101770.34;5126508;28;20116;-75
2022/09/06 06:24:38;;;;;;;0.20;0.20;;;;;;;18.08;56.83;101770.22;5126590;28;20019;-75
2022/09/06 06:27:03;;;;;;;0.30;0.30;;;;;;;18.23;58.04;101770.88;5126721;28;20019;-75
2022/09/06 06:29:29;;;;;;;0.20;0.20;;;;;;;18.49;56.19;101767.72;5126549;28;20020;-74
2022/09/06 06:31:54;;;;;;;0.20;0.20;;;;;;;18.66;56.78;101775.28;5126703;28;20023;-75
2022/09/06 06:34:20;;;;;;;0.22;0.22;;;;;;;18.90;56.09;101766.88;5126307;28;20059;-75
2022/09/06 06:36:46;;;;;;;0.25;0.25;;;;;;;18.94;54.67;101761.53;5108194;28;20080;-75
2022/09/06 06:39:12;;;;;;;0.30;0.30;;;;;;;19.07;55.04;101761.28;5126956;28;20059;-74
2022/09/06 06:41:37;;;;;;;0.20;0.20;;;;;;;19.43;53.81;101753.44;5126391;28;20073;-75
2022/09/06 06:44:04;;;;;;;0.20;0.20;;;;;;;19.44;51.92;101764.84;5126584;28;20040;-74
2022/09/06 06:46:35;;;;;;;0.20;0.20;;;;;;;19.28;52.98;101762.56;5126216;28;20048;-74
2022/09/06 06:49:00;;;;;;;0.20;0.20;;;;;;;19.29;53.11;101766.06;5126464;28;20364;-75
2022/09/06 06:51:29;;;;;;;0.20;0.20;;;;;;;19.28;53.02;101762.56;5125998;28;20530;-74
2022/09/06 06:53:55;;;;;;;0.30;0.30;;;;;;;19.44;53.51;101752.53;5125601;28;20084;-74
2022/09/06 06:56:23;;;;;;;0.20;0.20;;;;;;;19.85;53.27;101766.47;5126024;28;20094;-74
2022/09/06 06:58:51;;;;;;;0.40;0.40;;;;;;;20.12;52.83;101761.41;5126279;28;20028;-75
2022/09/06 07:01:21;;;;;;;0.20;0.20;;;;;;;20.36;51.36;101753.72;5126023;28;20031;-74
2022/09/06 07:03:47;;;;;;;0.20;0.20;;;;;;;20.65;52.52;101758.16;5126251;28;20028;-74
2022/09/06 07:06:13;;;;;;;0.20;0.20;;;;;;;21.33;51.21;101757.00;5107528;28;20035;-74
2022/09/06 07:08:40;;;;;;;0.20;0.20;;;;;;;21.70;49.91;101754.91;5126185;28;20065;-74
2022/09/06 07:11:08;;;;;;;0.45;0.45;;;;;;;21.91;50.17;101753.34;5125731;28;20071;-74
2022/09/06 07:13:34;;;;;;;0.20;0.20;;;;;;;22.14;48.61;101748.16;5126165;28;20022;-73
2022/09/06 07:16:14;;;;;;;0.20;0.20;;;;;;;22.31;48.84;101749.31;5125999;28;20075;-75
2022/09/06 07:18:41;;;;;;;0.20;0.20;;;;;;;22.65;48.89;101740.16;5126075;28;20054;-75
2022/09/06 07:21:15;;;;;;;0.20;0.20;;;;;;;22.79;46.34;101747.56;5125735;28;20024;-74
2022/09/06 07:23:41;;;;;;;0.20;0.20;;;;;;;22.30;45.91;101748.44;5107725;28;20020;-74
2022/09/06 07:26:06;;;;;;;0.20;0.20;;;;;;;22.02;46.31;101742.41;5125377;28;20030;-74
2022/09/06 07:28:32;;;;;;;0.20;0.20;;;;;;;22.00;46.92;101749.50;5106490;28;20020;-74
2022/09/06 07:30:59;;;;;;;0.20;0.20;;;;;;;22.32;47.49;101748.41;5124792;28;20538;-74
2022/09/06 07:33:25;;;;;;;0.20;0.20;;;;;;;22.78;46.48;101749.34;5126062;28;20055;-74
2022/09/06 07:35:55;;;;;;;0.10;0.10;;;;;;;22.79;44.94;101747.56;5125639;28;20031;-75
2022/09/06 07:38:20;;;;;;;0.20;0.20;;;;;;;22.86;44.02;101756.13;5125676;28;20058;-74
2022/09/06 07:40:52;;;;;;;0.20;0.20;;;;;;;22.59;43.89;101758.91;5125517;28;20015;-74
2022/09/06 07:43:17;;;;;;;0.17;0.17;;;;;;;22.26;44.31;101746.84;5125715;28;20482;-75
2022/09/06 07:45:42;;;;;;;0.20;0.20;;;;;;;22.27;44.78;101744.13;5125565;28;20039;-74
2022/09/06 07:48:08;;;;;;;0.20;0.20;;;;;;;22.42;45.35;101752.44;5125697;28;20053;-74
2022/09/06 07:50:33;;;;;;;0.20;0.20;;;;;;;22.43;43.48;101745.38;5125158;28;20046;-74
2022/09/06 07:53:05;;;;;;;0.20;0.20;;;;;;;22.19;44.10;101754.13;5125742;28;20039;-74
2022/09/06 07:55:31;;;;;;;0.20;0.20;;;;;;;22.18;43.98;101744.47;5125646;28;20477;-74
2022/09/06 07:57:56;;;;;;;0.20;0.20;;;;;;;22.20;44.10;101747.06;5125740;28;20020;-74
2022/09/06 08:00:21;;;;;;;0.20;0.20;;;;;;;22.27;43.65;101757.38;5125551;28;20024;-75
2022/09/06 08:02:47;;;;;;;0.20;0.20;;;;;;;22.24;43.44;101751.31;5125731;28;20053;-76
2022/09/06 08:05:12;;;;;;;0.20;0.20;;;;;;;21.92;41.80;101754.19;5126916;28;20027;-74
2022/09/06 08:07:37;;;;;;;0.20;0.20;;;;;;;21.36;42.56;101745.50;5129423;28;20075;-74
2022/09/06 08:10:03;;;;;;;0.20;0.20;;;;;;;21.17;43.71;101738.16;5129081;28;20030;-74
2022/09/06 08:12:29;;;;;;;0.20;0.20;;;;;;;21.20;44.51;101740.69;5129154;28;20016;-74
2022/09/06 08:14:54;;;;;;;0.20;0.20;;;;;;;21.77;43.95;101737.09;5129184;28;20039;-74
2022/09/06 08:17:19;;;;;;;0.20;0.20;;;;;;;22.35;44.39;101741.22;5129147;28;20030;-75
2022/09/06 08:19:45;;;;;;;0.20;0.20;;;;;;;23.20;43.60;101733.59;5128980;28;20008;-74
2022/09/06 08:22:10;;;;;;;0.20;0.20;;;;;;;23.52;42.59;101723.47;5128914;28;20020;-74
2022/09/06 08:24:36;;;;;;;0.20;0.20;;;;;;;24.04;41.98;101737.19;5128919;28;20023;-74
2022/09/06 08:27:02;;;;;;;0.15;0.15;;;;;;;24.34;40.89;101733.22;5110613;28;20083;-74
2022/09/06 08:29:27;;;;;;;10.32;2.63;;;;;;;24.36;39.21;101734.03;5128872;28;20027;-74
2022/09/06 08:31:53;;;;;;;0.20;0.20;;;;;;;24.26;39.43;101737.09;5128654;28;20019;-74
2022/09/06 08:34:18;;;;;;;0.20;0.20;;;;;;;24.34;40.28;101730.59;5128886;28;20020;-73
2022/09/06 08:36:44;;;;;;;0.20;0.20;;;;;;;24.83;39.69;101719.44;5128578;28;20023;-74
2022/09/06 08:39:10;;;;;;;0.20;0.20;;;;;;;25.57;38.37;101715.88;5128634;28;20044;-73
2022/09/06 08:41:50;;;;;;;0.20;0.20;;;;;;;25.50;37.79;101721.50;5128632;28;20024;-73
2022/09/06 08:44:25;;;;;;;0.20;0.20;;;;;;;25.73;36.30;101713.31;5128764;28;20020;-73
2022/09/06 08:46:51;;;;;;;0.20;0.20;;;;;;;25.71;37.19;101717.84;5128410;28;20055;-72
2022/09/06 08:49:16;;;;;;;0.20;0.20;;;;;;;26.09;35.22;101714.09;5128398;28;20027;-73
2022/09/06 08:51:48;;;;;;;0.20;0.20;;;;;;;25.97;34.92;101713.81;5128236;28;20053;-72
2022/09/06 08:54:49;;;;;;;1.35;1.27;;;;;;;25.92;36.32;101707.88;5128342;28;20057;-73
2022/09/06 08:57:56;;;;;;;0.20;0.20;;;;;;;26.24;35.94;101702.63;5128375;28;20023;-74
2022/09/06 09:00:22;;;;;;;0.40;0.40;;;;;;;26.59;34.41;101708.75;5045242;28;20045;-72
2022/09/06 09:03:08;;;;;;;0.10;0.10;;;;;;;26.29;34.44;101704.16;5045119;28;20072;-73
2022/09/06 09:05:36;;;;;;;0.20;0.20;;;;;;;26.15;33.95;101694.28;5045141;28;20124;-73
2022/09/06 09:08:06;;;;;;;0.13;0.13;;;;;;;26.31;33.87;101696.97;5045226;28;20060;-73
2022/09/06 09:10:46;;;;;;;0.20;0.20;;;;;;;26.65;34.41;101687.13;5028040;28;20149;-73
2022/09/06 09:13:34;;;;;;;0.10;0.10;;;;;;;27.26;33.16;101681.00;5045266;28;20029;-73
2022/09/06 09:16:00;;;;;;;0.20;0.20;;;;;;;26.91;32.19;101687.44;5044880;28;20083;-73
2022/09/06 09:18:32;;;;;;;0.20;0.20;;;;;;;26.97;31.96;101684.41;5044740;28;20053;-73
2022/09/06 09:20:58;;;;;;;0.17;0.17;;;;;;;26.17;30.77;101679.94;5044591;28;20044;-73
2022/09/06 09:23:24;;;;;;;0.20;0.20;;;;;;;25.53;31.63;101677.94;5044916;28;20057;-74
2022/09/06 09:25:51;;;;;;;0.15;0.15;;;;;;;25.57;32.78;101674.22;5045117;28;20458;-74
2022/09/06 09:28:21;;;;;;;0.20;0.20;;;;;;;26.07;32.58;101662.78;5044962;28;20096;-73
2022/09/06 09:30:51;;;;;;;0.15;0.15;;;;;;;26.62;31.93;101658.00;5044614;28;20029;-73
2022/09/06 09:33:22;;;;;;;0.10;0.10;;;;;;;27.58;31.91;101672.88;5054217;28;20061;-73
2022/09/06 09:35:48;;;;;;;0.10;0.10;;;;;;;27.25;30.82;101659.78;5127380;28;20100;-73
2022/09/06 09:38:23;;;;;;;0.10;0.10;;;;;;;26.65;31.80;101654.28;5127634;28;20032;-74
2022/09/06 09:40:59;;;;;;;0.10;0.10;;;;;;;27.51;30.94;101654.69;5127496;28;20019;-74
2022/09/06 09:43:29;;;;;;;0.10;0.10;;;;;;;28.04;31.43;101649.66;5127478;28;20024;-74
2022/09/06 09:46:15;;;;;;;0.10;0.10;;;;;;;27.94;29.80;101656.53;5127300;28;20068;-74
2022/09/06 09:49:04;;;;;;;0.10;0.10;;;;;;;27.50;30.01;101651.16;5127296;28;20023;-75
2022/09/06 09:51:32;;;;;;;0.10;0.10;;;;;;;26.89;29.75;101645.81;5108488;28;20495;-73
2022/09/06 09:54:03;;;;;;;0.10;0.10;;;;;;;26.55;29.95;101649.50;5127421;28;20027;-74
2022/09/06 09:56:32;;;;;;;0.10;0.10;;;;;;;26.30;31.06;101640.22;5127296;28;20051;-74
2022/09/06 09:58:59;;;;;;;0.10;0.10;;;;;;;26.57;31.10;101641.41;5109115;28;20042;-75
2022/09/06 10:01:28;;;;;;;0.10;0.10;;;;;;;26.55;29.50;101646.81;5126903;28;20058;-73
2022/09/06 10:04:06;;;;;;;0.20;0.20;;;;;;;24.96;30.25;101637.41;5127278;28;20020;-74
2022/09/06 10:06:32;;;;;;;0.10;0.10;;;;;;;24.38;31.76;101637.47;5126866;28;20077;-75
2022/09/06 10:08:58;;;;;;;0.20;0.20;;;;;;;24.64;32.83;101626.53;5126919;28;20019;-74
2022/09/06 10:11:38;;;;;;;0.10;0.10;;;;;;;26.00;32.79;101625.00;5126696;28;20083;-74
2022/09/06 10:14:23;;;;;;;0.10;0.10;;;;;;;27.15;31.15;101615.03;5126911;28;20395;-74
2022/09/06 10:16:50;;;;;;;0.10;0.10;;;;;;;27.56;30.36;101615.22;5126859;28;20038;-74
2022/09/06 10:19:38;;;;;;;0.10;0.10;;;;;;;28.33;29.59;101612.25;5126857;28;20106;-74
2022/09/06 10:22:19;;;;;;;0.10;0.10;;;;;;;28.20;25.50;101619.28;5126815;28;20073;-74
2022/09/06 10:25:09;;;;;;;0.10;0.10;;;;;;;26.87;26.97;101611.28;5126804;28;20083;-74
2022/09/06 10:27:37;;;;;;;0.10;0.10;;;;;;;26.64;27.82;101624.16;5126485;28;20053;-74
2022/09/06 10:30:06;;;;;;;0.20;0.20;;;;;;;26.69;27.33;101622.09;5125976;28;20031;-73
2022/09/06 10:32:39;;;;;;;0.20;0.20;;;;;;;26.63;27.96;101617.09;5126453;28;20046;-74
2022/09/06 10:35:21;;;;;;;0.10;0.10;;;;;;;27.04;27.76;101610.34;5107928;28;20023;-73
2022/09/06 10:38:01;;;;;;;0.20;0.20;;;;;;;26.98;25.87;101613.34;5126551;28;20076;-73
2022/09/06 10:40:36;;;;;;;0.10;0.10;;;;;;;26.90;26.96;101610.25;5108060;28;20054;-73
2022/09/06 10:43:04;;;;;;;0.10;0.10;;;;;;;26.78;25.05;101607.38;5126621;28;20035;-73
2022/09/06 10:45:45;;;;;;;0.10;0.10;;;;;;;26.16;27.31;101611.72;5126489;28;20052;-74
2022/09/06 10:48:17;;;;;;;0.10;0.10;;;;;;;26.74;28.06;101600.50;5108014;28;20040;-73
2022/09/06 10:50:52;;;;;;;0.20;0.20;;;;;;;27.26;25.45;101605.50;5125794;28;20037;-73
2022/09/06 10:53:21;;;;;;;0.28;0.28;;;;;;;26.48;25.26;101603.75;5126518;28;20055;-74
2022/09/06 10:56:01;;;;;;;0.10;0.10;;;;;;;25.84;26.10;101601.03;5107955;28;20024;-73
2022/09/06 10:58:33;;;;;;;0.10;0.10;;;;;;;25.60;26.40;101615.56;5126150;28;20023;-74
2022/09/06 11:00:58;;;;;;;0.20;0.20;;;;;;;25.40;25.59;101592.66;5125990;28;20020;-73
2022/09/06 11:03:50;;;;;;;0.10;0.10;;;;;;;24.87;26.62;101603.31;5126082;28;20070;-75
2022/09/06 11:06:16;;;;;;;;;;;;;;;24.86;26.53;101598.91;5122392;28;20035;-73
2022/09/06 11:09:11;;;;;;;0.20;0.20;;;;;;;25.48;26.70;101601.09;5126063;28;20035;-73
2022/09/06 11:12:08;;;;;;;0.10;0.10;;;;;;;26.12;26.33;101596.84;5125921;28;20050;-73
2022/09/06 11:14:35;;;;;;;0.10;0.10;;;;;;;26.26;25.11;101588.09;5126136;28;20023;-73
2022/09/06 11:17:09;;;;;;;0.20;0.20;;;;;;;26.13;26.03;101587.06;5107846;28;20027;-74
2022/09/06 11:20:10;;;;;;;0.20;0.20;;;;;;;25.88;26.42;101591.09;5125994;28;20022;-74
2022/09/06 11:23:01;;;;;;;0.20;0.20;;;;;;;26.55;26.04;101596.25;5107621;28;20024;-74
2022/09/06 11:25:35;;;;;;;0.20;0.20;;;;;;;25.18;26.43;101599.09;5126164;28;20020;-73
2022/09/06 11:28:07;;;;;;;0.20;0.20;;;;;;;23.73;28.10;101582.97;5124996;28;20028;-74
2022/09/06 11:30:33;;;;;;;;;;;;;;;23.05;28.53;101585.91;5124896;28;20019;-74
2022/09/06 11:33:21;;;;;;;0.20;0.20;;;;;;;22.45;29.95;101579.47;5107515;28;19971;-74
2022/09/06 11:35:46;;;;;;;0.10;0.10;;;;;;;22.16;30.34;101569.13;5125820;28;20099;-75
2022/09/06 11:38:22;;;;;;;0.20;0.20;;;;;;;21.69;30.79;101572.63;5125987;28;20023;-74
2022/09/06 11:40:55;;;;;;;0.20;0.20;;;;;;;21.49;30.99;101561.88;5128122;28;20023;-74